Weather at Brest Bretagne Airport

Public forecast

Using degrees Celsius for public forecast. Weather courtesy of forecast.io.

Current aviation weather report (METAR) for Brest Bretagne Airport

Report is more than 6 hours old.

2022/11/14 15:30 (retrieved 2 years ago)

LFRB 141530Z AUTO 20015KT 9999 BKN032 BKN041 BKN047 13/08 Q1009 BECMG 19015G30KT

Aviation forecast (TAF) for Brest Bretagne Airport

Forecast is more than 12 hours old.

2023/02/22 18:00 (retrieved 1 year ago)

TAF LFRB 221700Z 2218/2324 33010KT 9999 BKN030 PROB30 TEMPO 2218/2308 4000 SHRA BKN020TCU BECMG 2221/2223 VRB05KT BECMG 2309/2312 05010KT PROB40 TEMPO 2308/2315 3000 SHRA BKN015CB BECMG 2318/2321 05015G28KT PROB40 TEMPO 2318/2324 3000 SHRA BKN013